Ocean Park, Maine
Current Conditions -  °F | °C
As of 1:30 AM on Wednesday 28 Jan 2015 (Local Time) from KPWM Reporting Station
Light Snow Light Snow  
Wind Chill:   Ceiling: 1400
Heat Index: 16°   Visibility: 0.75mi
Dew Point: 11°   Wind: 17mph
Humidity: 81%   Direction: 330°NNW
Pressure: 29.64"   Gusts: 26mph
Location:  43.5°N, 70.39°W
Report Text: KPWM 280630Z AUTO 33015G23KT 3/4SM -SN VV014 M09/M12 A2964 RMK AO2 PK WND 36031/0610 P0001 T10891117 $
Loading
Personal Weather Stations






























Interactive Weather Map New forecast layout! Learn more

10-Day Weather Forecast

Advertisements
Track Severe Weather on mobile